createdAt,value
2023-02-15T00:01:12.356Z,99324.50
2023-02-15T00:06:14.842Z,99321.81
2023-02-15T00:11:39.553Z,99311.59
2023-02-15T00:16:43.829Z,99307.50
2023-02-15T00:21:47.026Z,99297.38
2023-02-15T00:26:50.404Z,99296.50
2023-02-15T00:31:53.605Z,99299.00
2023-02-15T00:36:56.560Z,99298.78
2023-02-15T00:41:59.108Z,99289.66
2023-02-15T00:47:01.565Z,99292.66
2023-02-15T00:52:04.144Z,99295.44
2023-02-15T00:57:06.715Z,99297.69
2023-02-15T01:02:09.236Z,99298.56
2023-02-15T01:07:11.674Z,99290.84
2023-02-15T01:12:14.117Z,99289.03
2023-02-15T01:17:16.528Z,99283.94
2023-02-15T01:22:20.395Z,99289.63
2023-02-15T01:27:23.314Z,99295.44
2023-02-15T01:32:26.130Z,99296.91
2023-02-15T01:37:28.771Z,99288.50
2023-02-15T01:42:31.392Z,99286.25
2023-02-15T01:47:41.647Z,99278.91
2023-02-15T01:52:56.853Z,99272.63
2023-02-15T01:57:59.683Z,99279.59
2023-02-15T02:03:02.714Z,99274.53
2023-02-15T02:08:05.643Z,99272.19
2023-02-15T02:13:08.563Z,99268.59
2023-02-15T02:18:34.143Z,99267.16
2023-02-15T02:23:57.778Z,99264.69
2023-02-15T02:29:00.150Z,99265.84
2023-02-15T02:34:05.174Z,99258.34
2023-02-15T02:39:35.838Z,99251.63
2023-02-15T02:45:16.681Z,99254.38
2023-02-15T02:50:29.255Z,99262.06
2023-02-15T02:55:59.834Z,99267.03
2023-02-15T03:01:15.030Z,99254.88
2023-02-15T03:06:27.497Z,99245.81
2023-02-15T03:11:30.876Z,99243.94
2023-02-15T03:16:34.044Z,99250.56
2023-02-15T03:21:39.571Z,99247.38
2023-02-15T03:26:47.247Z,99237.63
2023-02-15T03:31:56.520Z,99243.06
2023-02-15T03:37:11.055Z,99236.31
2023-02-15T03:42:26.038Z,99243.56
2023-02-15T03:47:33.414Z,99247.53
2023-02-15T03:52:38.274Z,99236.47
2023-02-15T03:57:59.543Z,99249.38
2023-02-15T04:03:28.161Z,99246.81
2023-02-15T04:08:49.144Z,99251.41
2023-02-15T04:13:57.452Z,99254.00
2023-02-15T04:19:18.766Z,99244.97
2023-02-15T04:24:40.153Z,99242.59
2023-02-15T04:29:42.594Z,99238.38
2023-02-15T04:34:45.166Z,99233.06
2023-02-15T04:39:47.563Z,99232.09
2023-02-15T04:44:50.304Z,99231.28
2023-02-15T04:49:52.892Z,99220.56
2023-02-15T04:54:55.501Z,99197.91
2023-02-15T05:00:00.061Z,99198.16
2023-02-15T05:05:02.672Z,99206.16
2023-02-15T05:10:05.457Z,99208.94
2023-02-15T05:15:08.395Z,99218.50
2023-02-15T05:20:11.158Z,99229.50
2023-02-15T05:25:32.527Z,99222.81
2023-02-15T05:30:35.197Z,99215.78
2023-02-15T05:35:37.823Z,99219.31
2023-02-15T05:40:40.223Z,99221.88
2023-02-15T05:45:46.770Z,99222.97
2023-02-15T05:51:02.528Z,99225.75
2023-02-15T05:56:06.829Z,99221.06
2023-02-15T06:01:14.630Z,99213.06
2023-02-15T06:06:17.074Z,99222.44
2023-02-15T06:11:19.469Z,99220.75
2023-02-15T06:16:22.243Z,99223.34
2023-02-15T06:21:24.744Z,99228.38
2023-02-15T06:26:27.233Z,99229.16
2023-02-15T06:31:29.752Z,99235.91
2023-02-15T06:36:33.003Z,99238.97
2023-02-15T06:41:35.516Z,99244.88
2023-02-15T06:46:38.011Z,99248.28
2023-02-15T06:51:40.534Z,99251.09
2023-02-15T06:56:44.540Z,99251.69
2023-02-15T07:01:47.016Z,99248.69
2023-02-15T07:06:49.536Z,99246.09
2023-02-15T07:12:10.724Z,99254.94
2023-02-15T07:17:34.461Z,99261.06
2023-02-15T07:22:37.355Z,99272.47
2023-02-15T07:27:40.346Z,99275.34
2023-02-15T07:33:04.986Z,99269.50
2023-02-15T07:38:08.050Z,99267.97
2023-02-15T07:43:10.492Z,99263.97
2023-02-15T07:48:12.933Z,99254.69
2023-02-15T07:53:15.635Z,99249.38
2023-02-15T07:58:18.043Z,99245.03
2023-02-15T08:03:21.175Z,99252.66
2023-02-15T08:08:32.993Z,99251.28
2023-02-15T08:13:35.387Z,99262.25
2023-02-15T08:18:38.023Z,99257.34
2023-02-15T08:23:40.599Z,99250.94
2023-02-15T08:28:43.901Z,99254.00
2023-02-15T08:33:48.030Z,99252.31
2023-02-15T08:38:51.006Z,99257.41
2023-02-15T08:43:58.870Z,99248.31
2023-02-15T08:49:02.294Z,99256.69
2023-02-15T08:54:11.552Z,99251.22
2023-02-15T08:59:23.372Z,99246.16
2023-02-15T09:04:25.868Z,99243.31
2023-02-15T09:09:28.281Z,99233.31
2023-02-15T09:14:30.767Z,99233.72
2023-02-15T09:19:33.585Z,99231.56
2023-02-15T09:24:36.106Z,99229.13
2023-02-15T09:29:38.602Z,99240.13
2023-02-15T09:34:41.287Z,99218.88
2023-02-15T09:39:47.270Z,99216.75
2023-02-15T09:45:18.606Z,99204.03
2023-02-15T09:50:38.541Z,99207.31
2023-02-15T09:55:50.064Z,99202.41
2023-02-15T10:01:12.742Z,99197.00
2023-02-15T10:06:47.620Z,99196.25
2023-02-15T10:12:18.646Z,99196.06
2023-02-15T10:17:30.622Z,99189.22
2023-02-15T10:22:48.692Z,99190.56
2023-02-15T10:27:52.351Z,99192.59
2023-02-15T10:32:59.508Z,99182.06
2023-02-15T10:38:11.666Z,99179.59
2023-02-15T10:43:51.337Z,99169.03
2023-02-15T10:49:13.851Z,99163.16
2023-02-15T10:54:24.102Z,99161.19
2023-02-15T10:59:47.047Z,99151.19
2023-02-15T11:05:11.259Z,99150.94
2023-02-15T11:10:46.347Z,99138.53
2023-02-15T11:16:05.730Z,99133.69
2023-02-15T11:21:33.776Z,99138.44
2023-02-15T11:26:45.512Z,99128.00
2023-02-15T11:32:20.235Z,99117.44
2023-02-15T11:37:30.178Z,99118.41
2023-02-15T11:42:34.252Z,99121.16
2023-02-15T11:47:36.729Z,99114.59
2023-02-15T11:52:39.161Z,99116.69
2023-02-15T11:57:47.783Z,99125.34
2023-02-15T12:02:56.072Z,99125.63
2023-02-15T12:08:38.670Z,99111.47
2023-02-15T12:14:01.743Z,99116.31
2023-02-15T12:19:04.191Z,99107.88
2023-02-15T12:24:33.576Z,99096.25
2023-02-15T12:29:59.830Z,99087.88
2023-02-15T12:35:23.298Z,99089.09
2023-02-15T12:40:31.834Z,99089.06
2023-02-15T12:45:37.357Z,99091.84
2023-02-15T12:50:41.449Z,99088.78
2023-02-15T12:55:58.631Z,99063.47
2023-02-15T13:01:22.548Z,99050.16
2023-02-15T13:06:25.498Z,99056.63
2023-02-15T13:11:38.556Z,99048.59
2023-02-15T13:16:42.077Z,99035.09
2023-02-15T13:21:49.830Z,99027.25
2023-02-15T13:27:09.296Z,99028.03
2023-02-15T13:32:42.187Z,99025.53
2023-02-15T13:38:19.184Z,99019.25
2023-02-15T13:43:55.365Z,99023.72
2023-02-15T13:49:19.944Z,99013.50
2023-02-15T13:54:28.471Z,99008.47
2023-02-15T13:59:48.188Z,99004.28
2023-02-15T14:05:07.867Z,98991.19
2023-02-15T14:10:16.141Z,98993.03
2023-02-15T14:15:30.942Z,98990.03
2023-02-15T14:21:07.963Z,98997.72
2023-02-15T14:26:26.171Z,98999.94
2023-02-15T14:31:51.278Z,98992.56
2023-02-15T14:36:55.158Z,98990.97
2023-02-15T14:42:10.818Z,98991.78
2023-02-15T14:47:26.431Z,98984.81
2023-02-15T14:52:28.926Z,98985.59
2023-02-15T14:57:35.927Z,98986.44
2023-02-15T15:02:52.951Z,98989.56
2023-02-15T15:07:58.681Z,98995.88
2023-02-15T15:13:33.351Z,99001.41
2023-02-15T15:18:44.603Z,98994.94
2023-02-15T15:23:47.128Z,98994.50
2023-02-15T15:28:49.553Z,98989.03
2023-02-15T15:34:29.517Z,98984.09
2023-02-15T15:39:40.911Z,98995.59
2023-02-15T15:45:20.214Z,98993.69
2023-02-15T15:50:23.317Z,98993.09
2023-02-15T15:55:28.881Z,98993.22
2023-02-15T16:00:50.919Z,98991.03
2023-02-15T16:05:56.512Z,99000.91
2023-02-15T16:11:01.146Z,98999.03
2023-02-15T16:16:03.763Z,99001.03
2023-02-15T16:21:06.537Z,98994.88
2023-02-15T16:26:38.983Z,98995.34
2023-02-15T16:31:41.144Z,99002.34
2023-02-15T16:36:43.192Z,99010.84
2023-02-15T16:41:47.592Z,99009.31
2023-02-15T16:46:55.195Z,99005.06
2023-02-15T16:52:08.030Z,99010.84
2023-02-15T16:57:25.104Z,99012.78
2023-02-15T17:02:54.420Z,99023.19
2023-02-15T17:08:44.941Z,99023.91
2023-02-15T17:14:05.169Z,99029.34
2023-02-15T17:19:18.633Z,99030.13
2023-02-15T17:24:43.833Z,99040.66
2023-02-15T17:29:55.440Z,99041.38
2023-02-15T17:35:05.044Z,99044.78
2023-02-15T17:40:29.213Z,99050.13
2023-02-15T17:45:44.983Z,99050.06
2023-02-15T17:50:47.294Z,99046.44
2023-02-15T17:55:49.461Z,99042.94
2023-02-15T18:01:21.992Z,99042.53
2023-02-15T18:06:43.074Z,99047.59
2023-02-15T18:11:48.750Z,99043.66
2023-02-15T18:16:51.177Z,99053.00
2023-02-15T18:21:55.782Z,99053.75
2023-02-15T18:26:57.847Z,99059.19
2023-02-15T18:32:01.529Z,99061.56
2023-02-15T18:37:06.479Z,99056.81
2023-02-15T18:42:22.899Z,99056.72
2023-02-15T18:47:26.010Z,99058.38
2023-02-15T18:52:34.610Z,99059.91
2023-02-15T18:57:36.710Z,99045.66
2023-02-15T19:02:38.858Z,99049.16
2023-02-15T19:07:43.712Z,99043.13
2023-02-15T19:12:46.769Z,99038.38
2023-02-15T19:17:49.354Z,99036.25
2023-02-15T19:22:55.479Z,99037.22
2023-02-15T19:27:58.687Z,99022.34
2023-02-15T19:33:02.222Z,99023.47
2023-02-15T19:38:14.703Z,99018.38
2023-02-15T19:43:20.476Z,99015.00
2023-02-15T19:48:23.291Z,99013.97
2023-02-15T19:53:28.739Z,99017.25
2023-02-15T19:58:31.271Z,99016.78
2023-02-15T20:03:33.433Z,99018.34
2023-02-15T20:08:35.476Z,99013.75
2023-02-15T20:13:38.101Z,99014.28
2023-02-15T20:18:44.655Z,99021.72
2023-02-15T20:23:46.965Z,99023.25
2023-02-15T20:28:49.259Z,99017.75
2023-02-15T20:33:53.100Z,99027.03
2023-02-15T20:38:57.415Z,99013.38
2023-02-15T20:43:59.760Z,99015.72
2023-02-15T20:49:01.791Z,99004.72
2023-02-15T20:54:21.067Z,99013.34
2023-02-15T20:59:32.605Z,99000.84
2023-02-15T21:04:34.986Z,98998.50
2023-02-15T21:09:37.267Z,99000.53
2023-02-15T21:14:39.329Z,99002.81
2023-02-15T21:19:42.299Z,98998.03
2023-02-15T21:24:51.817Z,99004.91
2023-02-15T21:29:54.184Z,98992.34
2023-02-15T21:34:56.330Z,98990.03
2023-02-15T21:39:58.558Z,98995.38
2023-02-15T21:45:19.395Z,98986.34
2023-02-15T21:50:44.226Z,98978.47
2023-02-15T21:55:46.306Z,98983.22
2023-02-15T22:00:49.158Z,98990.69
2023-02-15T22:05:52.276Z,98988.72
2023-02-15T22:10:56.958Z,98990.16
2023-02-15T22:15:59.613Z,98993.88
2023-02-15T22:21:03.701Z,98993.13
2023-02-15T22:26:14.179Z,99000.69
2023-02-15T22:31:22.737Z,98997.28
2023-02-15T22:36:29.272Z,99001.50
2023-02-15T22:41:32.057Z,98999.97
2023-02-15T22:46:34.269Z,98998.09
2023-02-15T22:51:36.319Z,98991.97
2023-02-15T22:56:47.622Z,98987.47
2023-02-15T23:01:50.418Z,98990.06
2023-02-15T23:06:57.560Z,99002.22
2023-02-15T23:11:59.630Z,99000.59
2023-02-15T23:17:02.701Z,99003.16
2023-02-15T23:22:04.801Z,99009.03
2023-02-15T23:27:25.749Z,99006.53
2023-02-15T23:32:28.041Z,99007.72
2023-02-15T23:37:30.107Z,99010.22
2023-02-15T23:42:35.688Z,99011.75
2023-02-15T23:47:56.218Z,99019.53
2023-02-15T23:52:59.747Z,99012.31
2023-02-15T23:58:07.255Z,99013.22
